Moffett Field, CA

12:53 PM PST op 23 november 2014 (GMT -0800)
Moffett Federal Air Field | Change Station
CLOSE
Current Station
Luchthaven
Location: Moffett NAS,
Geometrische hoogte: 39 ft
Nabije weerstations

Hoogte 39 ft 37.41 °N, 122.05 °W | Updated 57 minutes ago

Helder
Helder
63 °F
Voelt als 63 °F
N
6
Wind Variabel Wind van Variabel

Vandaag
Hoog -- | Laag -- °F
--% Kans op neerslag
Gisteren
Hoog -- | Laag -- °F
Precip. -- inches
6:56 AM 4:52 PM
Nieuwe maan, 2% visible
Druk 30.32 inches
Zicht 10.0 mijlen
Wolken Helder
Dauwpunt 40 °F
Vochtigheid 43%
Neerslag 0.00 inches
Dikte sneeuw Niet beschikbaar.
UV 3 van de 12
Pollen 2.30 van de 12
Luchtkwaliteit Niet beschikbaar.
Flu Activity Niet beschikbaar.
METAR KNUQ 231956Z AUTO VRB05KT 10SM CLR 17/04 A3032 RMK AO2 SLP268 T01720044 TSNO

More Conditions Fewer Conditions

Druk 30.32 inches
Zicht 10.0 mijlen
Wolken Helder
Dauwpunt 40 °F
Vochtigheid 43%
Neerslag 0.00 inches
Dikte sneeuw Niet beschikbaar.
UV 3 van de 12
Pollen 2.30 van de 12
Luchtkwaliteit Niet beschikbaar.
Flu Activity Niet beschikbaar.
METAR KNUQ 231956Z AUTO VRB05KT 10SM CLR 17/04 A3032 RMK AO2 SLP268 T01720044 TSNO

More Conditions Fewer Conditions

10-Day Weather Forecast

Almanac

Astronomie

Nov. 23, 2014 Opkomst Ondergang
Werkelijke tijd
Burgerlijke schemering
Nautische schemering
Astronomische schemering
Maan
Golflengte van het zichtbare licht
Daglengte
Tomorrow will be .
, % of the Moon is Illuminated

Extremen vandaag

State Highs State Lows

Community

WunderPhotos

Upload Photos

1,773,171 foto’s ge-upload!

WunderBlogs® & News

Nearby

Luchtkwaliteit

  Luchtkwaliteit LK-index Verontreinigende stof
Not available.

Dikte sneeuw

Station Depth Geometrische hoogte

Aardbevingen

Stad Distance Mag. Time & Date
Minimum magnitude displayed is 2.5.

Watertemperatuur langs de kust

Plaats Temperatuur

Nabije weerstations